Time;durP1;ratioP1;P1;durP2;ratioP2;P2;SDS_P1;SDS_P2;PMS_P1;PMS_P2;Temp;Humidity;BMP_temperature;BMP_pressure;BME280_temperature;BME280_humidity;BME280_pressure;Samples;Min_cycle;Max_cycle;Signal;HPM_P1;HPM_P2
2022/09/07 00:01:06;;;;;;;13.17;3.90;;;17.40;99.90;;;;;;5057408;28;20465;-69
2022/09/07 00:03:34;;;;;;;15.63;4.63;;;17.50;99.90;;;;;;5060963;28;20459;-69
2022/09/07 00:06:06;;;;;;;22.63;5.20;;;17.50;99.90;;;;;;5061079;28;20541;-68
2022/09/07 00:08:33;;;;;;;32.40;5.73;;;17.40;99.90;;;;;;5058231;28;20824;-70
2022/09/07 00:11:01;;;;;;;14.33;4.10;;;17.50;99.90;;;;;;5063045;28;20463;-68
2022/09/07 00:13:31;;;;;;;8.33;4.67;;;17.40;99.90;;;;;;5050027;28;20957;-68
2022/09/07 00:15:58;;;;;;;12.03;5.30;;;17.40;99.90;;;;;;5054675;28;20504;-68
2022/09/07 00:18:26;;;;;;;25.17;4.87;;;17.50;99.90;;;;;;5059252;28;20835;-68
2022/09/07 00:21:00;;;;;;;32.87;5.53;;;17.60;99.90;;;;;;5063135;28;20463;-69
2022/09/07 00:23:30;;;;;;;6.90;5.00;;;17.70;99.90;;;;;;5059987;28;20469;-69
2022/09/07 00:26:00;;;;;;;6.30;4.50;;;17.70;99.90;;;;;;5065788;28;20486;-67
2022/09/07 00:28:27;;;;;;;6.10;5.60;;;17.70;99.90;;;;;;5067204;28;20474;-69
2022/09/07 00:30:55;;;;;;;6.03;5.37;;;17.50;99.90;;;;;;5061492;28;20481;-68
2022/09/07 00:33:24;;;;;;;5.63;5.13;;;17.60;99.90;;;;;;5054793;28;20838;-69
2022/09/07 00:35:51;;;;;;;5.80;5.30;;;17.60;99.90;;;;;;5059303;28;20465;-68
2022/09/07 00:38:18;;;;;;;6.27;5.70;;;17.70;99.90;;;;;;5063459;28;20478;-66
2022/09/07 00:40:47;;;;;;;6.93;5.47;;;17.70;99.90;;;;;;5065799;28;20462;-67
2022/09/07 00:43:16;;;;;;;5.20;4.77;;;17.70;99.90;;;;;;5059955;28;20471;-67
2022/09/07 00:45:44;;;;;;;5.70;5.30;;;17.60;99.90;;;;;;5065602;28;21060;-67
2022/09/07 00:48:15;;;;;;;5.70;5.20;;;17.70;99.90;;;;;;5059322;28;21010;-68
2022/09/07 00:50:46;;;;;;;6.00;5.40;;;17.80;99.90;;;;;;5062272;28;20597;-67
2022/09/07 00:53:16;;;;;;;5.90;5.30;;;17.70;99.90;;;;;;5063014;28;21221;-67
2022/09/07 00:55:46;;;;;;;6.03;5.43;;;17.70;99.90;;;;;;5068167;28;20867;-67
2022/09/07 00:58:16;;;;;;;5.40;4.63;;;17.70;99.90;;;;;;5062247;28;20849;-67
2022/09/07 01:00:45;;;;;;;6.73;5.83;;;17.70;99.90;;;;;;5063982;28;20842;-67
2022/09/07 01:03:14;;;;;;;5.70;5.20;;;17.80;99.90;;;;;;5063960;28;20482;-65
2022/09/07 01:05:46;;;;;;;5.23;4.67;;;17.80;99.90;;;;;;5054771;28;20464;-65
2022/09/07 01:08:14;;;;;;;6.07;5.57;;;17.80;99.90;;;;;;5062743;28;20545;-66
2022/09/07 01:10:41;;;;;;;7.07;5.30;;;17.80;99.90;;;;;;5062213;28;20451;-67
2022/09/07 01:13:08;;;;;;;7.17;5.87;;;17.80;99.90;;;;;;5064658;28;20477;-67
2022/09/07 01:15:43;;;;;;;6.30;5.70;;;17.80;99.90;;;;;;5061659;28;20485;-66
2022/09/07 01:18:21;;;;;;;5.87;5.50;;;17.80;99.90;;;;;;5057039;28;20474;-66
2022/09/07 01:21:06;;;;;;;7.63;5.87;;;17.80;99.90;;;;;;5054736;28;20462;-68
2022/09/07 01:24:11;;;;;;;12.23;5.73;;;17.80;99.90;;;;;;5053378;28;20455;-67
2022/09/07 01:27:22;;;;;;;6.00;5.50;;;17.70;99.90;;;;;;5059048;28;20494;-66
2022/09/07 01:29:58;;;;;;;6.37;5.70;;;17.70;99.90;;;;;;5059687;28;20462;-66
2022/09/07 01:32:33;;;;;;;6.33;5.83;;;17.80;99.90;;;;;;5055417;28;20486;-68
2022/09/07 01:35:05;;;;;;;6.57;6.10;;;17.80;99.90;;;;;;5063570;28;20470;-66
2022/09/07 01:37:41;;;;;;;7.90;5.40;;;17.80;99.90;;;;;;5059640;28;20471;-65
2022/09/07 01:40:13;;;;;;;9.03;5.77;;;17.70;99.90;;;;;;5056127;28;20565;-65
2022/09/07 01:42:48;;;;;;;5.80;5.30;;;17.80;99.90;;;;;;5059249;28;20495;-67
2022/09/07 01:45:20;;;;;;;10.80;5.63;;;17.70;99.90;;;;;;5056462;28;20551;-66
2022/09/07 01:47:52;;;;;;;7.20;5.93;;;17.70;99.90;;;;;;5062103;28;21012;-67
2022/09/07 01:50:22;;;;;;;7.20;6.60;;;17.70;99.90;;;;;;5063540;28;21014;-67
2022/09/07 01:52:54;;;;;;;7.03;6.33;;;17.70;99.90;;;;;;5065683;28;20466;-65
2022/09/07 01:55:27;;;;;;;6.20;5.87;;;17.80;99.90;;;;;;5059227;28;20466;-67
2022/09/07 01:58:01;;;;;;;6.90;6.30;;;17.80;99.90;;;;;;5062279;28;20466;-66
2022/09/07 02:00:31;;;;;;;7.10;6.50;;;17.80;99.90;;;;;;5062230;28;20545;-66
2022/09/07 02:03:04;;;;;;;6.90;6.30;;;17.80;99.90;;;;;;5054571;28;20482;-65
2022/09/07 02:05:36;;;;;;;9.57;6.60;;;17.70;99.90;;;;;;5063663;28;20562;-65
2022/09/07 02:08:08;;;;;;;7.27;6.57;;;17.70;99.90;;;;;;5058115;28;20516;-66
2022/09/07 02:10:38;;;;;;;7.67;6.93;;;17.70;99.90;;;;;;5065751;28;21008;-67
2022/09/07 02:13:11;;;;;;;7.40;6.60;;;17.80;99.90;;;;;;5064125;28;20526;-67
2022/09/07 02:15:46;;;;;;;7.43;6.63;;;17.80;99.90;;;;;;5061862;28;20483;-66
2022/09/07 02:18:14;;;;;;;7.07;6.43;;;17.70;99.90;;;;;;5057072;28;20460;-67
2022/09/07 02:20:45;;;;;;;9.30;6.80;;;17.60;99.90;;;;;;5062470;28;20563;-67
2022/09/07 02:23:17;;;;;;;7.60;6.90;;;17.60;99.90;;;;;;5061477;28;20869;-66
2022/09/07 02:25:50;;;;;;;7.20;6.70;;;17.40;99.90;;;;;;5060438;28;20977;-67
2022/09/07 02:28:21;;;;;;;8.03;7.23;;;17.40;99.90;;;;;;5060850;28;20896;-67
2022/09/07 02:30:50;;;;;;;9.47;7.73;;;17.40;99.90;;;;;;5064508;28;20815;-67
2022/09/07 02:33:17;;;;;;;8.30;7.03;;;17.30;99.90;;;;;;5061545;28;20556;-66
2022/09/07 02:35:44;;;;;;;8.40;7.70;;;17.30;99.90;;;;;;5062967;28;20463;-65
2022/09/07 02:38:12;;;;;;;8.57;7.77;;;17.20;99.90;;;;;;5060316;28;20468;-68
2022/09/07 02:40:39;;;;;;;7.53;6.80;;;17.20;99.90;;;;;;5064107;28;20476;-66
2022/09/07 02:43:10;;;;;;;9.43;7.63;;;17.20;99.90;;;;;;5061899;28;20462;-67
2022/09/07 02:45:51;;;;;;;7.83;7.23;;;17.10;99.90;;;;;;5058442;28;20455;-67
2022/09/07 02:48:27;;;;;;;8.60;7.80;;;17.10;99.90;;;;;;5059832;28;20853;-66
2022/09/07 02:51:10;;;;;;;8.13;7.60;;;17.10;99.90;;;;;;5062613;28;20532;-66
2022/09/07 02:53:50;;;;;;;8.37;7.63;;;17.10;99.90;;;;;;5060826;28;20459;-66
2022/09/07 02:56:30;;;;;;;10.03;8.20;;;17.00;99.90;;;;;;5060915;28;20459;-67
2022/09/07 02:59:06;;;;;;;10.80;9.00;;;17.00;99.90;;;;;;5059556;28;20471;-65
2022/09/07 03:01:47;;;;;;;8.90;8.07;;;17.00;99.90;;;;;;5057510;28;20491;-65
2022/09/07 03:04:23;;;;;;;10.00;7.90;;;17.00;99.90;;;;;;5055349;28;20464;-66
2022/09/07 03:06:55;;;;;;;8.67;7.90;;;17.00;99.90;;;;;;5059629;28;20482;-66
2022/09/07 03:09:27;;;;;;;9.10;8.30;;;17.00;99.90;;;;;;5057657;28;20468;-66
2022/09/07 03:11:55;;;;;;;12.67;8.33;;;17.00;99.90;;;;;;5053305;28;20464;-66
2022/09/07 03:14:24;;;;;;;9.17;8.30;;;16.90;99.90;;;;;;5056023;28;20462;-65
2022/09/07 03:16:55;;;;;;;7.87;7.13;;;16.90;99.90;;;;;;5062799;28;20492;-66
2022/09/07 03:19:25;;;;;;;10.67;8.60;;;16.90;99.90;;;;;;5061032;28;20459;-66
2022/09/07 03:21:54;;;;;;;9.83;8.10;;;16.90;99.90;;;;;;5054593;28;20984;-66
2022/09/07 03:24:21;;;;;;;8.77;8.17;;;16.90;99.90;;;;;;5062924;28;20467;-66
2022/09/07 03:26:49;;;;;;;7.93;7.43;;;16.80;99.90;;;;;;5059718;28;20467;-66
2022/09/07 03:29:16;;;;;;;9.27;8.40;;;16.90;99.90;;;;;;5056734;28;20455;-66
2022/09/07 03:31:43;;;;;;;8.47;7.97;;;16.90;99.90;;;;;;5056953;28;20459;-65
2022/09/07 03:34:10;;;;;;;9.23;8.30;;;16.90;99.90;;;;;;5062514;28;20494;-66
2022/09/07 03:36:40;;;;;;;12.43;9.40;;;16.80;99.90;;;;;;5055978;28;20466;-66
2022/09/07 03:39:09;;;;;;;9.50;8.60;;;16.80;99.90;;;;;;5061171;28;20460;-67
2022/09/07 03:41:36;;;;;;;12.27;9.67;;;16.80;99.90;;;;;;5061969;28;20559;-65
2022/09/07 03:44:04;;;;;;;9.17;8.27;;;16.80;99.90;;;;;;5056582;28;20463;-67
2022/09/07 03:46:33;;;;;;;8.77;8.00;;;16.70;99.90;;;;;;5055533;28;20467;-66
2022/09/07 03:48:59;;;;;;;8.23;7.63;;;16.80;99.90;;;;;;5062757;28;20490;-65
2022/09/07 03:51:26;;;;;;;12.33;8.63;;;16.90;99.90;;;;;;5058215;28;20454;-65
2022/09/07 03:53:56;;;;;;;12.80;8.30;;;16.80;99.90;;;;;;5055281;28;20467;-65
2022/09/07 03:56:24;;;;;;;10.43;9.17;;;16.80;99.90;;;;;;5064194;28;20816;-66
2022/09/07 03:58:55;;;;;;;10.60;9.50;;;16.80;99.90;;;;;;5061425;28;20463;-67
2022/09/07 04:01:23;;;;;;;13.10;10.13;;;16.80;99.90;;;;;;5051172;28;20625;-66
2022/09/07 04:03:51;;;;;;;9.47;8.77;;;16.80;99.90;;;;;;5033383;28;21392;-67
2022/09/07 04:06:19;;;;;;;9.53;8.73;;;16.80;99.90;;;;;;5030885;28;20478;-67
2022/09/07 04:08:46;;;;;;;10.57;9.20;;;16.80;99.90;;;;;;5031498;28;20478;-66
2022/09/07 04:11:16;;;;;;;10.03;8.90;;;16.70;99.90;;;;;;5030985;28;20550;-66
2022/09/07 04:13:44;;;;;;;11.43;10.43;;;16.70;99.90;;;;;;5031009;28;20845;-66
2022/09/07 04:16:13;;;;;;;11.50;10.40;;;16.70;99.90;;;;;;5030783;28;20898;-68
2022/09/07 04:18:40;;;;;;;14.13;10.53;;;16.70;99.90;;;;;;5032847;28;21220;-65
2022/09/07 04:21:08;;;;;;;13.13;10.50;;;16.70;99.90;;;;;;5032941;28;20978;-66
2022/09/07 04:23:37;;;;;;;12.07;9.97;;;16.70;99.90;;;;;;5030199;28;20588;-67
2022/09/07 04:26:04;;;;;;;11.93;10.63;;;16.70;99.90;;;;;;5030313;28;20785;-67
2022/09/07 04:28:33;;;;;;;12.33;11.10;;;16.70;99.90;;;;;;5032249;28;21121;-66
2022/09/07 04:31:03;;;;;;;13.90;12.10;;;16.60;99.90;;;;;;5033666;28;20947;-68
2022/09/07 04:33:31;;;;;;;12.63;11.63;;;16.60;99.90;;;;;;5032418;28;20463;-68
2022/09/07 04:36:00;;;;;;;18.40;11.90;;;16.60;99.90;;;;;;5032053;28;20456;-67
2022/09/07 04:38:28;;;;;;;14.87;12.07;;;16.60;99.90;;;;;;5031539;28;20989;-68
2022/09/07 04:40:59;;;;;;;12.33;11.03;;;16.60;99.90;;;;;;5031645;28;20536;-68
2022/09/07 04:43:26;;;;;;;11.67;10.57;;;16.60;99.90;;;;;;5032746;28;20475;-68
2022/09/07 04:45:55;;;;;;;12.33;11.33;;;16.50;99.90;;;;;;5031298;28;20464;-67
2022/09/07 04:48:22;;;;;;;16.53;12.13;;;16.50;99.90;;;;;;5031753;28;21001;-67
2022/09/07 04:50:50;;;;;;;13.20;11.77;;;16.60;99.90;;;;;;5031145;28;20811;-67
2022/09/07 04:53:18;;;;;;;12.10;10.90;;;16.60;99.90;;;;;;5032333;28;20466;-67
2022/09/07 04:55:45;;;;;;;11.67;10.53;;;16.60;99.90;;;;;;5030891;28;20464;-67
2022/09/07 04:58:12;;;;;;;13.67;11.93;;;16.60;99.90;;;;;;5031104;28;20475;-68
2022/09/07 05:00:39;;;;;;;15.13;11.00;;;16.50;99.90;;;;;;5030797;28;20485;-68
2022/09/07 05:03:07;;;;;;;14.97;12.27;;;16.50;99.90;;;;;;5030473;28;20490;-67
2022/09/07 05:05:37;;;;;;;12.87;11.33;;;16.40;99.90;;;;;;5031833;28;20459;-67
2022/09/07 05:08:04;;;;;;;12.53;11.47;;;16.40;99.90;;;;;;5030798;28;20863;-68
2022/09/07 05:10:31;;;;;;;12.83;11.20;;;16.50;99.90;;;;;;5030022;28;20463;-68
2022/09/07 05:12:58;;;;;;;14.83;12.10;;;16.50;99.90;;;;;;5030399;28;21676;-69
2022/09/07 05:15:28;;;;;;;12.43;11.43;;;16.50;99.90;;;;;;5030234;28;20487;-67
2022/09/07 05:17:54;;;;;;;12.70;11.40;;;16.60;99.90;;;;;;5030193;28;20558;-67
2022/09/07 05:20:23;;;;;;;12.23;11.27;;;16.60;99.90;;;;;;5031088;28;21020;-68
2022/09/07 05:22:58;;;;;;;15.03;11.20;;;16.60;99.90;;;;;;5030878;28;20471;-67
2022/09/07 05:25:26;;;;;;;29.93;12.73;;;16.70;99.90;;;;;;5030731;28;20529;-68
2022/09/07 05:27:53;;;;;;;14.40;11.93;;;16.70;99.90;;;;;;5029977;28;21009;-65
2022/09/07 05:30:20;;;;;;;12.37;11.50;;;16.70;99.90;;;;;;5029017;28;20970;-66
2022/09/07 05:32:47;;;;;;;12.20;11.00;;;16.70;99.90;;;;;;5029410;28;20515;-67
2022/09/07 05:35:15;;;;;;;12.90;11.80;;;16.70;99.90;;;;;;5028044;28;20498;-67
2022/09/07 05:37:43;;;;;;;13.37;12.07;;;16.80;99.90;;;;;;5030150;28;20470;-65
2022/09/07 05:40:11;;;;;;;15.03;11.50;;;16.90;99.90;;;;;;5029221;28;20482;-67
2022/09/07 05:42:38;;;;;;;12.63;11.53;;;17.00;99.90;;;;;;5030313;28;20456;-67
2022/09/07 05:45:06;;;;;;;16.67;11.47;;;17.10;99.90;;;;;;5030810;28;20472;-68
2022/09/07 05:47:33;;;;;;;11.03;10.43;;;17.20;99.90;;;;;;5030788;28;20467;-67
2022/09/07 05:50:00;;;;;;;11.23;10.33;;;17.30;99.90;;;;;;5030232;28;20518;-67
2022/09/07 05:52:27;;;;;;;11.47;10.63;;;17.30;99.90;;;;;;5030158;28;20452;-67
2022/09/07 05:54:56;;;;;;;13.37;11.77;;;17.20;99.90;;;;;;5035351;28;20471;-67
2022/09/07 05:57:23;;;;;;;12.07;11.07;;;17.20;99.90;;;;;;5030057;28;20552;-68
2022/09/07 05:59:50;;;;;;;11.80;10.60;;;17.30;99.90;;;;;;5030799;28;20463;-68
2022/09/07 06:02:17;;;;;;;12.40;11.50;;;17.20;99.90;;;;;;5028606;28;20487;-67
2022/09/07 06:04:44;;;;;;;12.47;11.37;;;17.20;99.90;;;;;;5029846;28;20458;-68
2022/09/07 06:07:11;;;;;;;14.03;10.77;;;17.20;99.90;;;;;;5029176;28;20472;-68
2022/09/07 06:09:38;;;;;;;11.53;10.63;;;17.20;99.90;;;;;;5030145;28;20503;-68
2022/09/07 06:12:07;;;;;;;13.03;9.67;;;17.30;99.90;;;;;;5030200;28;21043;-68
2022/09/07 06:14:34;;;;;;;10.60;9.70;;;17.30;99.90;;;;;;5028193;28;20464;-67
2022/09/07 06:17:01;;;;;;;11.53;10.23;;;17.50;99.90;;;;;;5047252;28;21060;-67
2022/09/07 06:19:28;;;;;;;10.00;9.30;;;17.70;99.90;;;;;;5049169;28;20896;-67
2022/09/07 06:21:55;;;;;;;9.80;9.10;;;17.90;99.90;;;;;;5048703;28;20955;-67
2022/09/07 06:24:22;;;;;;;9.93;9.13;;;18.00;99.90;;;;;;5046479;28;21014;-68
2022/09/07 06:26:49;;;;;;;10.43;9.47;;;18.10;99.90;;;;;;5049427;28;20938;-68
2022/09/07 06:29:17;;;;;;;11.93;9.90;;;17.90;99.90;;;;;;5048748;28;20505;-67
2022/09/07 06:31:44;;;;;;;12.67;9.23;;;17.90;99.90;;;;;;5048432;28;20466;-68
2022/09/07 06:34:11;;;;;;;12.70;8.93;;;17.90;99.90;;;;;;5049198;28;20470;-68
2022/09/07 06:36:38;;;;;;;11.97;7.77;;;18.00;99.90;;;;;;5057627;28;20494;-67
2022/09/07 06:39:05;;;;;;;7.97;7.47;;;18.00;99.90;;;;;;5047159;28;21485;-67
2022/09/07 06:41:33;;;;;;;10.23;8.40;;;18.10;99.90;;;;;;5060986;28;20476;-67
2022/09/07 06:44:01;;;;;;;8.50;7.93;;;18.20;99.90;;;;;;5073047;28;20469;-67
2022/09/07 06:46:29;;;;;;;8.93;8.10;;;18.20;99.90;;;;;;5068118;28;20917;-69
2022/09/07 06:48:57;;;;;;;9.77;8.90;;;18.20;99.90;;;;;;5049410;28;20495;-68
2022/09/07 06:51:25;;;;;;;9.23;8.33;;;18.20;99.90;;;;;;5050519;28;22420;-68
2022/09/07 06:53:55;;;;;;;8.73;7.93;;;18.10;99.90;;;;;;5049849;28;20471;-67
2022/09/07 06:56:23;;;;;;;8.27;7.77;;;18.20;99.90;;;;;;5050695;28;20459;-67
2022/09/07 06:58:54;;;;;;;11.83;9.10;;;18.20;99.90;;;;;;5050673;28;20493;-67
2022/09/07 07:01:22;;;;;;;8.60;7.97;;;18.10;99.90;;;;;;5050694;28;20483;-68
2022/09/07 07:03:51;;;;;;;8.23;7.73;;;18.10;99.90;;;;;;5050954;28;20468;-68
2022/09/07 07:06:19;;;;;;;13.80;8.30;;;18.20;99.90;;;;;;5048613;28;20469;-68
2022/09/07 07:08:46;;;;;;;12.67;11.47;;;18.30;99.90;;;;;;5049727;28;20486;-67
2022/09/07 07:11:15;;;;;;;14.70;13.27;;;18.40;99.90;;;;;;5048690;28;20459;-67
2022/09/07 07:13:43;;;;;;;15.37;13.93;;;18.30;99.90;;;;;;5049601;28;20718;-69
2022/09/07 07:16:12;;;;;;;15.63;14.40;;;18.30;99.90;;;;;;5036491;28;20490;-68
2022/09/07 07:18:39;;;;;;;15.70;14.60;;;18.20;99.90;;;;;;5028143;28;20463;-69
2022/09/07 07:21:10;;;;;;;16.90;15.63;;;18.20;99.90;;;;;;5029120;28;21136;-68
2022/09/07 07:23:37;;;;;;;16.60;15.50;;;18.00;99.90;;;;;;5029303;28;20464;-68
2022/09/07 07:26:05;;;;;;;21.97;15.60;;;18.00;99.90;;;;;;5029027;28;20455;-67
2022/09/07 07:28:33;;;;;;;19.73;15.93;;;18.00;99.90;;;;;;5028763;28;20510;-66
2022/09/07 07:31:02;;;;;;;16.37;15.00;;;18.00;99.90;;;;;;5029981;28;20460;-67
2022/09/07 07:33:30;;;;;;;16.53;15.40;;;18.00;99.90;;;;;;5027635;28;20482;-67
2022/09/07 07:36:12;;;;;;;45.63;18.30;;;18.00;99.90;;;;;;5029927;28;20476;-68
2022/09/07 07:38:40;;;;;;;21.03;15.03;;;17.90;99.90;;;;;;5061991;28;20482;-68
2022/09/07 07:41:07;;;;;;;15.20;13.63;;;17.90;99.90;;;;;;5058176;28;20471;-68
2022/09/07 07:43:35;;;;;;;15.00;14.00;;;18.00;99.90;;;;;;5055499;28;20464;-68
2022/09/07 07:46:02;;;;;;;15.80;14.70;;;18.00;99.90;;;;;;5028590;28;20456;-68
2022/09/07 07:48:30;;;;;;;15.50;14.20;;;18.10;99.90;;;;;;5028440;28;20538;-68
2022/09/07 07:50:59;;;;;;;16.07;14.50;;;18.20;99.90;;;;;;5028731;28;21245;-68
2022/09/07 07:53:28;;;;;;;15.17;13.77;;;18.40;99.90;;;;;;5024354;28;20490;-69
2022/09/07 07:55:58;;;;;;;13.33;12.33;;;18.50;99.90;;;;;;5028616;28;20460;-69
2022/09/07 07:58:26;;;;;;;22.30;13.53;;;18.50;99.90;;;;;;5027351;28;20468;-69
2022/09/07 08:00:53;;;;;;;13.97;12.60;;;18.60;99.90;;;;;;5027271;28;21078;-68
2022/09/07 08:03:20;;;;;;;11.77;10.97;;;18.70;99.90;;;;;;5028219;28;20496;-69
2022/09/07 08:05:48;;;;;;;11.00;10.30;;;18.80;99.90;;;;;;5029378;28;20882;-70
2022/09/07 08:08:15;;;;;;;11.60;10.80;;;18.90;99.90;;;;;;5027757;28;20920;-66
2022/09/07 08:10:44;;;;;;;42.30;14.43;;;19.10;99.90;;;;;;5027938;28;20479;-69
2022/09/07 08:13:11;;;;;;;10.90;9.97;;;19.20;99.90;;;;;;5028639;28;20451;-67
2022/09/07 08:15:43;;;;;;;11.00;10.10;;;19.30;99.90;;;;;;5025264;28;21084;-67
2022/09/07 08:18:11;;;;;;;9.23;8.43;;;19.40;99.90;;;;;;5028405;28;20507;-69
2022/09/07 08:20:37;;;;;;;12.33;10.53;;;19.60;99.90;;;;;;5028841;28;20490;-67
2022/09/07 08:23:06;;;;;;;9.70;8.70;;;19.70;99.90;;;;;;5027997;28;21560;-67
2022/09/07 08:25:33;;;;;;;10.40;9.50;;;20.10;99.90;;;;;;5027771;28;20951;-68
2022/09/07 08:28:02;;;;;;;28.90;9.73;;;20.20;99.90;;;;;;5028621;28;20467;-69
2022/09/07 08:30:29;;;;;;;9.63;8.70;;;20.30;99.90;;;;;;5028229;28;20483;-68
2022/09/07 08:32:56;;;;;;;12.00;9.30;;;20.40;99.90;;;;;;5028093;28;20863;-68
2022/09/07 08:35:23;;;;;;;8.53;7.83;;;20.30;99.90;;;;;;5027382;28;20463;-67
2022/09/07 08:37:50;;;;;;;10.23;8.17;;;20.50;99.90;;;;;;5028417;28;20898;-67
2022/09/07 08:40:17;;;;;;;11.67;8.07;;;20.60;99.90;;;;;;5029072;28;20545;-67
2022/09/07 08:42:54;;;;;;;8.60;7.70;;;20.80;99.90;;;;;;5028189;28;21000;-67
2022/09/07 08:45:28;;;;;;;9.90;8.30;;;20.90;99.90;;;;;;5027677;28;20493;-68
2022/09/07 08:47:55;;;;;;;8.47;7.87;;;20.80;99.90;;;;;;5028773;28;20468;-66
2022/09/07 08:50:27;;;;;;;8.57;7.87;;;20.80;99.90;;;;;;5031623;28;21018;-66
2022/09/07 08:52:58;;;;;;;8.80;8.20;;;20.80;99.90;;;;;;5032756;28;20462;-69
2022/09/07 08:55:28;;;;;;;11.10;8.40;;;20.80;99.90;;;;;;5032065;28;20902;-67
2022/09/07 08:58:02;;;;;;;11.50;9.30;;;20.70;99.90;;;;;;5031835;28;22632;-65
2022/09/07 09:00:34;;;;;;;10.37;9.57;;;20.60;99.90;;;;;;5031504;28;20451;-67
2022/09/07 09:03:02;;;;;;;9.63;8.93;;;20.60;99.90;;;;;;5031200;28;21193;-66
2022/09/07 09:05:36;;;;;;;10.40;8.80;;;20.50;99.90;;;;;;5031569;28;20464;-67
2022/09/07 09:08:20;;;;;;;9.47;8.90;;;20.50;99.90;;;;;;5031575;28;20486;-67
2022/09/07 09:10:55;;;;;;;9.00;8.30;;;20.40;99.90;;;;;;5030987;28;20485;-67
2022/09/07 09:13:33;;;;;;;9.00;8.40;;;20.60;99.90;;;;;;5031996;28;20463;-66
2022/09/07 09:16:10;;;;;;;9.40;8.70;;;21.10;99.90;;;;;;5031063;28;20487;-68
2022/09/07 09:18:51;;;;;;;10.10;9.40;;;21.90;99.90;;;;;;5030559;28;20564;-68
2022/09/07 09:21:19;;;;;;;10.93;10.30;;;22.70;99.90;;;;;;5046014;28;20566;-67
2022/09/07 09:23:49;;;;;;;11.23;10.63;;;23.40;99.90;;;;;;5051826;28;20567;-68
2022/09/07 09:26:21;;;;;;;12.13;11.23;;;23.50;99.90;;;;;;5031074;28;20591;-68
2022/09/07 09:28:48;;;;;;;12.60;11.70;;;23.30;99.90;;;;;;5031362;28;20462;-68
2022/09/07 09:31:19;;;;;;;12.97;12.17;;;23.20;99.90;;;;;;5031683;28;20556;-67
2022/09/07 09:34:08;;;;;;;13.70;12.90;;;23.30;99.90;;;;;;5031470;28;21331;-68
2022/09/07 09:36:40;;;;;;;14.20;13.30;;;23.70;99.90;;;;;;5031205;28;21415;-68
2022/09/07 09:39:29;;;;;;;14.90;13.80;;;24.20;99.90;;;;;;5031121;28;20471;-68
2022/09/07 09:41:59;;;;;;;15.87;14.57;;;24.30;99.90;;;;;;5029857;28;20547;-67
2022/09/07 09:44:31;;;;;;;15.27;14.13;;;24.50;99.90;;;;;;5031221;28;20464;-68
2022/09/07 09:47:00;;;;;;;15.30;14.50;;;24.70;99.90;;;;;;5030532;28;20954;-69
2022/09/07 09:49:33;;;;;;;16.53;15.33;;;24.50;99.90;;;;;;5029551;28;20684;-68
2022/09/07 09:52:03;;;;;;;16.10;15.20;;;24.20;99.90;;;;;;5030192;28;20784;-68
2022/09/07 09:54:32;;;;;;;16.87;15.77;;;24.20;99.90;;;;;;5030782;28;20464;-67
2022/09/07 09:57:00;;;;;;;17.13;15.97;;;24.40;99.90;;;;;;5030156;28;20563;-68
2022/09/07 09:59:28;;;;;;;17.07;16.00;;;24.50;99.90;;;;;;5029157;28;20463;-68
2022/09/07 10:01:56;;;;;;;17.63;16.23;;;24.60;99.90;;;;;;5029970;28;20492;-68
2022/09/07 10:04:32;;;;;;;17.63;16.50;;;24.50;99.90;;;;;;5026039;28;20467;-67
2022/09/07 10:07:07;;;;;;;18.30;17.20;;;24.20;99.90;;;;;;5030386;28;20471;-68
2022/09/07 10:09:36;;;;;;;18.60;16.87;;;24.30;99.90;;;;;;5030463;28;21204;-68
2022/09/07 10:12:05;;;;;;;17.97;16.77;;;24.30;99.90;;;;;;5029839;28;21030;-68
2022/09/07 10:14:35;;;;;;;17.93;16.73;;;24.30;99.90;;;;;;5028724;28;20962;-67
2022/09/07 10:17:11;;;;;;;18.87;17.50;;;24.90;99.90;;;;;;5024795;28;20522;-68
2022/09/07 10:19:42;;;;;;;18.20;17.20;;;25.50;99.90;;;;;;5031899;28;20460;-68
2022/09/07 10:22:31;;;;;;;18.80;17.67;;;25.80;99.90;;;;;;5030061;28;20475;-68
2022/09/07 10:25:00;;;;;;;19.00;17.80;;;25.70;99.90;;;;;;5028073;28;20456;-68
2022/09/07 10:27:31;;;;;;;19.63;18.03;;;25.00;99.90;;;;;;5029635;28;20467;-68
2022/09/07 10:29:58;;;;;;;18.47;17.37;;;24.70;99.90;;;;;;5029857;28;20499;-68
2022/09/07 10:32:43;;;;;;;18.70;17.40;;;24.90;99.90;;;;;;5028562;28;20463;-68
2022/09/07 10:35:19;;;;;;;20.07;18.70;;;25.20;99.90;;;;;;5028273;28;20478;-68
2022/09/07 10:37:55;;;;;;;18.90;17.70;;;25.50;99.90;;;;;;5029212;28;20458;-67
2022/09/07 10:40:31;;;;;;;18.77;17.27;;;26.30;99.90;;;;;;5028630;28;21406;-68
2022/09/07 10:43:14;;;;;;;18.70;17.50;;;26.70;99.90;;;;;;5029916;28;20479;-69
2022/09/07 10:45:47;;;;;;;19.30;17.73;;;27.60;99.90;;;;;;5029568;28;20468;-69
2022/09/07 10:48:21;;;;;;;19.27;18.07;;;28.00;99.90;;;;;;5030922;28;22438;-69
2022/09/07 10:50:53;;;;;;;19.97;18.57;;;27.50;99.90;;;;;;5029215;28;21766;-69
2022/09/07 10:53:31;;;;;;;19.70;18.40;;;27.20;99.90;;;;;;5029796;28;20470;-70
2022/09/07 10:56:05;;;;;;;19.53;18.33;;;27.50;99.90;;;;;;5030137;28;21151;-68
2022/09/07 10:58:42;;;;;;;20.10;18.53;;;27.10;99.90;;;;;;5029567;28;20974;-69
2022/09/07 11:01:18;;;;;;;18.40;17.20;;;26.70;99.90;;;;;;5029052;28;20479;-69
2022/09/07 11:04:11;;;;;;;18.43;17.33;;;26.90;99.90;;;;;;5029945;28;20976;-69
2022/09/07 11:06:43;;;;;;;18.57;17.20;;;27.40;99.90;;;;;;5030520;28;20820;-69
2022/09/07 11:09:41;;;;;;;18.10;16.97;;;28.10;99.90;;;;;;5029748;28;20475;-70
2022/09/07 11:12:14;;;;;;;18.50;17.40;;;28.70;99.90;;;;;;5023577;28;20471;-69
2022/09/07 11:14:46;;;;;;;18.80;17.60;;;29.40;99.90;;;;;;5030238;28;20970;-68
2022/09/07 11:17:17;;;;;;;19.83;18.20;;;28.70;99.90;;;;;;5030829;28;20452;-70
2022/09/07 11:19:50;;;;;;;20.80;18.47;;;27.80;99.90;;;;;;5030737;28;20816;-69
2022/09/07 11:22:29;;;;;;;18.03;17.03;;;27.20;99.90;;;;;;5031681;28;20451;-68
2022/09/07 11:25:04;;;;;;;17.87;16.90;;;26.80;99.90;;;;;;5030648;28;21151;-69
2022/09/07 11:27:35;;;;;;;19.83;18.43;;;27.20;99.90;;;;;;5030371;28;20588;-69
2022/09/07 11:30:06;;;;;;;17.23;16.23;;;27.50;99.90;;;;;;5029828;28;20495;-70
2022/09/07 11:32:37;;;;;;;17.17;16.10;;;28.50;99.90;;;;;;5028277;28;20466;-67
2022/09/07 11:35:07;;;;;;;18.43;17.30;;;29.20;99.90;;;;;;5029222;28;21135;-68
2022/09/07 11:37:42;;;;;;;17.60;16.43;;;29.70;99.90;;;;;;5054602;28;20498;-70
2022/09/07 11:40:16;;;;;;;18.17;16.97;;;29.60;99.90;;;;;;5058750;28;20473;-68
2022/09/07 11:42:49;;;;;;;18.07;16.67;;;29.90;99.90;;;;;;5052582;28;20474;-67
2022/09/07 11:45:22;;;;;;;17.97;16.67;;;30.20;99.90;;;;;;5033133;28;20475;-68
2022/09/07 11:47:56;;;;;;;17.13;16.23;;;29.20;99.90;;;;;;5029159;28;20463;-67
2022/09/07 11:50:24;;;;;;;17.60;16.50;;;28.40;99.90;;;;;;5027793;28;20487;-68
2022/09/07 11:52:57;;;;;;;16.83;16.03;;;27.80;99.90;;;;;;5027916;28;20475;-67
2022/09/07 11:55:27;;;;;;;16.43;15.33;;;27.80;99.90;;;;;;5028684;28;20510;-67
2022/09/07 11:58:13;;;;;;;16.40;15.60;;;28.30;99.90;;;;;;5027990;28;20481;-67
2022/09/07 12:00:51;;;;;;;16.93;15.97;;;28.40;99.90;;;;;;5026153;28;21246;-69
2022/09/07 12:03:45;;;;;;;16.80;15.90;;;28.70;99.90;;;;;;5027240;28;20850;-68
2022/09/07 12:06:48;;;;;;;16.90;15.90;;;28.70;99.90;;;;;;5026635;28;20459;-68
2022/09/07 12:09:32;;;;;;;16.87;15.97;;;28.40;99.90;;;;;;5026650;28;20868;-68
2022/09/07 12:12:28;;;;;;;16.10;15.30;;;28.70;99.90;;;;;;5026191;28;20970;-68
2022/09/07 12:15:12;;;;;;;16.50;15.40;;;28.70;99.90;;;;;;5029290;28;20460;-69
2022/09/07 12:17:51;;;;;;;16.10;15.10;;;28.30;99.90;;;;;;5048388;28;20465;-69
2022/09/07 12:20:19;;;;;;;17.10;16.00;;;29.30;99.90;;;;;;5048952;28;20845;-69
2022/09/07 12:22:58;;;;;;;16.50;15.70;;;29.70;99.90;;;;;;5050287;28;20889;-69
2022/09/07 12:25:27;;;;;;;17.40;16.03;;;30.00;99.30;;;;;;5051535;28;21479;-70
2022/09/07 12:27:55;;;;;;;16.70;15.70;;;30.00;98.70;;;;;;5052989;28;20463;-69
2022/09/07 12:30:54;;;;;;;17.40;16.33;;;29.80;98.70;;;;;;5052914;28;20494;-69
2022/09/07 12:33:30;;;;;;;17.93;16.77;;;29.10;99.70;;;;;;5052160;28;20969;-70
2022/09/07 12:35:59;;;;;;;17.40;16.20;;;29.10;99.90;;;;;;5050477;28;20756;-70
2022/09/07 12:39:19;;;;;;;17.50;16.20;;;29.10;97.90;;;;;;5053367;28;20462;-70
2022/09/07 12:42:14;;;;;;;17.80;16.20;;;29.60;98.90;;;;;;5051912;28;20792;-70
2022/09/07 12:44:41;;;;;;;16.20;15.30;;;29.60;98.40;;;;;;5051562;28;20845;-72
2022/09/07 12:47:28;;;;;;;15.93;14.93;;;29.70;97.50;;;;;;5051099;28;20459;-70
2022/09/07 12:50:27;;;;;;;16.90;15.87;;;30.10;96.10;;;;;;5051818;28;20489;-70
2022/09/07 12:53:25;;;;;;;16.20;15.03;;;30.80;94.40;;;;;;5005706;28;20466;-72
2022/09/07 12:56:19;;;;;;;16.33;15.33;;;31.00;93.00;;;;;;5047193;28;20929;-70
2022/09/07 12:58:56;;;;;;;16.67;15.60;;;31.80;92.50;;;;;;5033205;28;20949;-71